Flight Track Log - Related Links

Times and Time Zones

All times are in EDT time to prevent confusion due to time zone crossing. See the UAL3589 flight status page for this flight to view local times or setup timezone preferences in your user account.

Time Position Orientation Groundspeed Altitude Reporting Facility
EDT Latitude Longitude Course Direction KTS MPH feet Rate Location/Type
Sun 09:53:44 PM 40.6667 -74.1833 255° West 144 166 1,000  Level New York TRACON
Sun 09:54:44 PM 40.6333 -74.2167 217° Southwest 191 220 2,300 1,300 Climbing New York TRACON
Sun 09:55:44 PM 40.6667 -74.2833 303° West 202 232 3,600 1,550 Climbing New York TRACON
Sun 09:56:44 PM 40.6833 -74.3500 288° West 194 223 5,400 1,600 Climbing New York TRACON
Sun 09:57:44 PM 40.7000 -74.4167 288° West 195 224 6,800 800 Climbing New York TRACON
Sun 09:58:44 PM 40.6833 -74.4833 252° West 231 266 7,000 600 Climbing New York TRACON
Sun 09:59:00 PM 40.5784 -74.6749 255° West  Level FlightAware Approximate
Sun 09:59:44 PM 40.6500 -74.5667 242° Southwest 233 268 8,000  Level New York TRACON
Sun 10:00:44 PM 40.6167 -74.6333 237° Southwest 251 289 8,000  Level New York TRACON
Sun 10:02:00 PM 40.5698 -74.7272 237° Southwest  Level FlightAware Approximate
Sun 10:09:00 PM 40.5522 -75.3478 273° West  Level FlightAware Approximate
Sun 10:10:00 PM 40.5561 -75.4362 273° West  Level FlightAware Approximate
Sun 10:11:00 PM 40.5599 -75.5247 273° West  Level FlightAware Approximate
Sun 10:12:00 PM 40.5637 -75.6132 273° West  Level FlightAware Approximate
Sun 10:13:00 PM 40.5619 -75.7007 250° West  Level FlightAware Approximate
Sun 10:14:00 PM 40.5388 -75.7840 250° West  Level FlightAware Approximate
Sun 10:15:00 PM 40.5157 -75.8672 250° West  Level FlightAware Approximate
Sun 10:16:00 PM 40.4925 -75.9503 250° West  Level FlightAware Approximate
Sun 10:17:00 PM 40.4758 -76.0358 259° West  Level FlightAware Approximate
Sun 10:18:00 PM 40.4612 -76.1220 252° West  Level FlightAware Approximate
Sun 10:19:00 PM 40.4373 -76.2047 246° West  Level FlightAware Approximate
Sun 10:20:00 PM 40.4103 -76.2857 246° West  Level FlightAware Approximate
Sun 10:21:00 PM 40.3862 -76.3682 251° West  Level FlightAware Approximate
Sun 10:22:00 PM 40.3639 -76.4516 251° West  Level FlightAware Approximate
Sun 10:23:00 PM 40.3415 -76.5350 251° West  Level FlightAware Approximate
Sun 10:24:00 PM 40.3190 -76.6182 251° West  Level FlightAware Approximate
Sun 10:25:00 PM 40.2965 -76.7015 250° West  Level FlightAware Approximate
Sun 10:26:00 PM 40.2833 -76.7868 270° West  Level FlightAware Approximate
Sun 10:27:00 PM 40.2833 -76.8751 270° West  Level FlightAware Approximate
Sun 10:28:00 PM 40.2876 -76.9628 281° West  Level FlightAware Approximate
Sun 10:29:00 PM 40.2999 -77.0496 281° West  Level FlightAware Approximate
Sun 10:30:00 PM 40.2722 -77.0056 118° Southeast  Level FlightAware Approximate
Sun 10:31:00 PM 40.2463 -76.9259 123° Southeast  Level FlightAware Approximate
Sun 10:32:00 PM 40.2234 -76.8467 123° Southeast  Level FlightAware Approximate
Sun 10:33:00 PM 40.1911 -76.7694 118° Southeast  Level FlightAware Approximate
Sun 10:34:00 PM 40.1932 -76.7626 118° Southeast  Level Estimated
Sun 10:35:00 PM 40.1932 -76.7626 118° Southeast  Level Estimated
Sun 10:36:00 PM 40.1932 -76.7626 118° Southeast  Level Estimated

Login

Don't have an account? Register now (free) for customized features, flight alerts, and more!